Arendahl, Minnesota
Current Conditions -  °F | °C
As of 2:35 PM on Thursday 20 Nov 2014 (Local Time) from KFKA Reporting Station
Clear Clear  
Wind Chill:   Ceiling: Unl
Heat Index: 16°   Visibility: 10mi
Dew Point:   Wind: 17mph
Humidity: 62%   Direction: 280°W
Pressure: 30.13"   Gusts: 22mph
Location:  43.7298°N, 91.8267°W
Report Text: KFKA 202035Z AUTO 28015G19KT 10SM CLR M09/M15 A3013 RMK AO2 T10871148
Loading
Personal Weather Stations






























Interactive Weather Map New forecast layout! Learn more

10-Day Weather Forecast

Advertisements
Track Severe Weather on mobile